sensor_id;sensor_type;location;lat;lon;timestamp;P1;durP1;ratioP1;P2;durP2;ratioP2
12990;SDS011;6560;57.692;11.958;2023-04-25T00:00:03;20.40;;;15.00;;
12990;SDS011;6560;57.692;11.958;2023-04-25T00:02:32;19.17;;;13.97;;
12990;SDS011;6560;57.692;11.958;2023-04-25T00:05:01;18.97;;;13.63;;
12990;SDS011;6560;57.692;11.958;2023-04-25T00:07:29;17.97;;;13.43;;
12990;SDS011;6560;57.692;11.958;2023-04-25T00:10:27;20.10;;;14.10;;
12990;SDS011;6560;57.692;11.958;2023-04-25T00:13:41;18.07;;;13.40;;
12990;SDS011;6560;57.692;11.958;2023-04-25T00:19:43;20.60;;;13.50;;
12990;SDS011;6560;57.692;11.958;2023-04-25T00:22:12;19.03;;;13.97;;
12990;SDS011;6560;57.692;11.958;2023-04-25T00:24:39;17.27;;;13.17;;
12990;SDS011;6560;57.692;11.958;2023-04-25T00:27:04;22.00;;;14.77;;
12990;SDS011;6560;57.692;11.958;2023-04-25T00:29:30;21.40;;;15.13;;
12990;SDS011;6560;57.692;11.958;2023-04-25T00:31:56;27.33;;;16.03;;
12990;SDS011;6560;57.692;11.958;2023-04-25T00:34:22;22.80;;;15.00;;
12990;SDS011;6560;57.692;11.958;2023-04-25T00:36:47;23.80;;;15.50;;
12990;SDS011;6560;57.692;11.958;2023-04-25T00:39:14;26.50;;;16.57;;
12990;SDS011;6560;57.692;11.958;2023-04-25T00:41:41;25.87;;;15.83;;
12990;SDS011;6560;57.692;11.958;2023-04-25T00:44:10;23.93;;;15.03;;
12990;SDS011;6560;57.692;11.958;2023-04-25T00:46:43;24.27;;;17.13;;
12990;SDS011;6560;57.692;11.958;2023-04-25T01:05:03;39.50;;;20.63;;
12990;SDS011;6560;57.692;11.958;2023-04-25T01:07:48;34.63;;;19.83;;
12990;SDS011;6560;57.692;11.958;2023-04-25T01:14:18;42.03;;;19.00;;
12990;SDS011;6560;57.692;11.958;2023-04-25T01:16:43;39.07;;;21.70;;
12990;SDS011;6560;57.692;11.958;2023-04-25T01:19:09;39.53;;;19.80;;
12990;SDS011;6560;57.692;11.958;2023-04-25T01:21:38;38.73;;;20.90;;
12990;SDS011;6560;57.692;11.958;2023-04-25T01:24:05;37.23;;;22.30;;
12990;SDS011;6560;57.692;11.958;2023-04-25T01:26:31;34.73;;;21.03;;
12990;SDS011;6560;57.692;11.958;2023-04-25T01:28:58;36.77;;;20.80;;
12990;SDS011;6560;57.692;11.958;2023-04-25T01:31:24;33.20;;;20.20;;
12990;SDS011;6560;57.692;11.958;2023-04-25T01:33:52;36.13;;;21.37;;
12990;SDS011;6560;57.692;11.958;2023-04-25T01:36:19;35.77;;;20.43;;
12990;SDS011;6560;57.692;11.958;2023-04-25T01:38:46;33.47;;;19.57;;
12990;SDS011;6560;57.692;11.958;2023-04-25T01:41:13;36.17;;;20.70;;
12990;SDS011;6560;57.692;11.958;2023-04-25T01:43:39;40.57;;;20.13;;
12990;SDS011;6560;57.692;11.958;2023-04-25T01:46:06;38.10;;;19.17;;
12990;SDS011;6560;57.692;11.958;2023-04-25T01:48:32;34.00;;;18.70;;
12990;SDS011;6560;57.692;11.958;2023-04-25T01:51:04;31.00;;;18.10;;
12990;SDS011;6560;57.692;11.958;2023-04-25T01:53:30;36.03;;;19.47;;
12990;SDS011;6560;57.692;11.958;2023-04-25T01:55:58;29.60;;;16.07;;
12990;SDS011;6560;57.692;11.958;2023-04-25T01:58:24;34.17;;;18.30;;
12990;SDS011;6560;57.692;11.958;2023-04-25T02:00:49;29.27;;;16.13;;
12990;SDS011;6560;57.692;11.958;2023-04-25T02:03:15;28.03;;;16.63;;
12990;SDS011;6560;57.692;11.958;2023-04-25T02:05:40;32.53;;;17.07;;
12990;SDS011;6560;57.692;11.958;2023-04-25T02:08:06;27.37;;;16.67;;
12990;SDS011;6560;57.692;11.958;2023-04-25T02:10:33;25.97;;;14.83;;
12990;SDS011;6560;57.692;11.958;2023-04-25T02:13:00;25.60;;;15.67;;
12990;SDS011;6560;57.692;11.958;2023-04-25T02:15:26;22.63;;;14.70;;
12990;SDS011;6560;57.692;11.958;2023-04-25T02:17:52;24.33;;;15.40;;
12990;SDS011;6560;57.692;11.958;2023-04-25T02:20:20;26.03;;;15.60;;
12990;SDS011;6560;57.692;11.958;2023-04-25T02:22:46;25.57;;;16.63;;
12990;SDS011;6560;57.692;11.958;2023-04-25T02:25:12;26.53;;;16.30;;
12990;SDS011;6560;57.692;11.958;2023-04-25T02:27:38;24.63;;;15.33;;
12990;SDS011;6560;57.692;11.958;2023-04-25T02:30:04;24.33;;;15.67;;
12990;SDS011;6560;57.692;11.958;2023-04-25T02:32:31;23.83;;;15.40;;
12990;SDS011;6560;57.692;11.958;2023-04-25T02:35:00;24.00;;;16.10;;
12990;SDS011;6560;57.692;11.958;2023-04-25T02:37:31;22.73;;;15.53;;
12990;SDS011;6560;57.692;11.958;2023-04-25T02:39:58;24.37;;;14.83;;
12990;SDS011;6560;57.692;11.958;2023-04-25T02:42:23;25.13;;;16.37;;
12990;SDS011;6560;57.692;11.958;2023-04-25T02:44:49;23.70;;;16.13;;
12990;SDS011;6560;57.692;11.958;2023-04-25T02:47:15;25.57;;;15.37;;
12990;SDS011;6560;57.692;11.958;2023-04-25T02:49:46;22.20;;;14.97;;
12990;SDS011;6560;57.692;11.958;2023-04-25T02:52:12;25.17;;;16.00;;
12990;SDS011;6560;57.692;11.958;2023-04-25T02:54:38;31.70;;;17.20;;
12990;SDS011;6560;57.692;11.958;2023-04-25T02:57:05;22.90;;;14.47;;
12990;SDS011;6560;57.692;11.958;2023-04-25T02:59:30;24.23;;;14.87;;
12990;SDS011;6560;57.692;11.958;2023-04-25T03:01:56;31.87;;;17.50;;
12990;SDS011;6560;57.692;11.958;2023-04-25T03:04:21;24.13;;;15.53;;
12990;SDS011;6560;57.692;11.958;2023-04-25T03:06:49;23.77;;;16.23;;
12990;SDS011;6560;57.692;11.958;2023-04-25T03:09:36;29.40;;;16.17;;
12990;SDS011;6560;57.692;11.958;2023-04-25T03:12:02;29.10;;;17.10;;
12990;SDS011;6560;57.692;11.958;2023-04-25T03:14:27;24.23;;;14.57;;
12990;SDS011;6560;57.692;11.958;2023-04-25T03:16:53;25.83;;;15.73;;
12990;SDS011;6560;57.692;11.958;2023-04-25T03:19:18;21.93;;;15.80;;
12990;SDS011;6560;57.692;11.958;2023-04-25T03:21:45;24.00;;;13.67;;
12990;SDS011;6560;57.692;11.958;2023-04-25T03:24:11;21.70;;;14.77;;
12990;SDS011;6560;57.692;11.958;2023-04-25T03:26:36;18.07;;;13.13;;
12990;SDS011;6560;57.692;11.958;2023-04-25T03:29:11;19.77;;;12.13;;
12990;SDS011;6560;57.692;11.958;2023-04-25T03:31:38;21.13;;;13.53;;
12990;SDS011;6560;57.692;11.958;2023-04-25T03:34:05;21.73;;;13.80;;
12990;SDS011;6560;57.692;11.958;2023-04-25T03:36:30;19.83;;;12.77;;
12990;SDS011;6560;57.692;11.958;2023-04-25T03:39:00;22.80;;;14.13;;
12990;SDS011;6560;57.692;11.958;2023-04-25T03:41:25;23.67;;;14.43;;
12990;SDS011;6560;57.692;11.958;2023-04-25T03:43:53;28.70;;;14.43;;
12990;SDS011;6560;57.692;11.958;2023-04-25T03:46:20;27.13;;;15.77;;
12990;SDS011;6560;57.692;11.958;2023-04-25T03:48:47;27.43;;;16.27;;
12990;SDS011;6560;57.692;11.958;2023-04-25T03:51:13;25.00;;;16.60;;
12990;SDS011;6560;57.692;11.958;2023-04-25T03:53:40;30.23;;;16.07;;
12990;SDS011;6560;57.692;11.958;2023-04-25T03:56:06;32.40;;;16.00;;
12990;SDS011;6560;57.692;11.958;2023-04-25T03:58:32;29.83;;;18.20;;
12990;SDS011;6560;57.692;11.958;2023-04-25T04:01:01;28.20;;;15.40;;
12990;SDS011;6560;57.692;11.958;2023-04-25T04:04:25;29.03;;;16.57;;
12990;SDS011;6560;57.692;11.958;2023-04-25T04:06:51;29.37;;;18.90;;
12990;SDS011;6560;57.692;11.958;2023-04-25T04:09:18;32.07;;;19.77;;
12990;SDS011;6560;57.692;11.958;2023-04-25T04:11:54;30.63;;;18.03;;
12990;SDS011;6560;57.692;11.958;2023-04-25T04:14:19;31.57;;;18.07;;
12990;SDS011;6560;57.692;11.958;2023-04-25T04:16:45;38.53;;;20.40;;
12990;SDS011;6560;57.692;11.958;2023-04-25T04:19:11;33.83;;;17.17;;
12990;SDS011;6560;57.692;11.958;2023-04-25T04:21:37;28.50;;;16.70;;
12990;SDS011;6560;57.692;11.958;2023-04-25T04:24:03;28.37;;;16.77;;
12990;SDS011;6560;57.692;11.958;2023-04-25T04:26:31;24.93;;;15.13;;
12990;SDS011;6560;57.692;11.958;2023-04-25T04:28:59;27.43;;;15.37;;
12990;SDS011;6560;57.692;11.958;2023-04-25T04:31:25;21.77;;;13.63;;
12990;SDS011;6560;57.692;11.958;2023-04-25T04:33:55;19.83;;;12.50;;
12990;SDS011;6560;57.692;11.958;2023-04-25T04:36:41;22.17;;;12.03;;
12990;SDS011;6560;57.692;11.958;2023-04-25T04:40:11;17.67;;;11.40;;
12990;SDS011;6560;57.692;11.958;2023-04-25T04:42:37;21.90;;;11.10;;
12990;SDS011;6560;57.692;11.958;2023-04-25T04:45:03;19.60;;;11.03;;
12990;SDS011;6560;57.692;11.958;2023-04-25T04:47:29;19.07;;;11.90;;
12990;SDS011;6560;57.692;11.958;2023-04-25T04:49:58;17.00;;;9.97;;
12990;SDS011;6560;57.692;11.958;2023-04-25T04:52:23;18.87;;;11.40;;
12990;SDS011;6560;57.692;11.958;2023-04-25T04:54:49;16.03;;;10.33;;
12990;SDS011;6560;57.692;11.958;2023-04-25T04:57:14;15.70;;;9.50;;
12990;SDS011;6560;57.692;11.958;2023-04-25T04:59:41;14.60;;;9.50;;
12990;SDS011;6560;57.692;11.958;2023-04-25T05:02:08;15.30;;;9.17;;
12990;SDS011;6560;57.692;11.958;2023-04-25T05:04:35;19.77;;;9.87;;
12990;SDS011;6560;57.692;11.958;2023-04-25T05:07:00;14.37;;;9.40;;
12990;SDS011;6560;57.692;11.958;2023-04-25T05:09:26;13.60;;;8.67;;
12990;SDS011;6560;57.692;11.958;2023-04-25T05:11:54;12.37;;;7.90;;
12990;SDS011;6560;57.692;11.958;2023-04-25T05:14:20;13.77;;;8.67;;
12990;SDS011;6560;57.692;11.958;2023-04-25T05:17:09;13.03;;;7.80;;
12990;SDS011;6560;57.692;11.958;2023-04-25T05:20:21;10.97;;;7.23;;
12990;SDS011;6560;57.692;11.958;2023-04-25T05:22:47;9.47;;;5.40;;
12990;SDS011;6560;57.692;11.958;2023-04-25T05:25:15;10.67;;;6.80;;
12990;SDS011;6560;57.692;11.958;2023-04-25T05:27:47;8.10;;;6.10;;
12990;SDS011;6560;57.692;11.958;2023-04-25T05:30:13;10.30;;;6.43;;
12990;SDS011;6560;57.692;11.958;2023-04-25T05:32:39;8.87;;;5.73;;
12990;SDS011;6560;57.692;11.958;2023-04-25T05:35:07;9.03;;;6.00;;
12990;SDS011;6560;57.692;11.958;2023-04-25T05:37:39;9.90;;;5.67;;
12990;SDS011;6560;57.692;11.958;2023-04-25T05:40:05;12.43;;;5.40;;
12990;SDS011;6560;57.692;11.958;2023-04-25T05:42:32;10.20;;;6.63;;
12990;SDS011;6560;57.692;11.958;2023-04-25T05:44:57;10.93;;;6.50;;
12990;SDS011;6560;57.692;11.958;2023-04-25T05:47:23;11.73;;;5.70;;
12990;SDS011;6560;57.692;11.958;2023-04-25T05:49:48;8.03;;;5.53;;
12990;SDS011;6560;57.692;11.958;2023-04-25T05:52:14;11.77;;;5.93;;
12990;SDS011;6560;57.692;11.958;2023-04-25T05:54:40;8.67;;;5.40;;
12990;SDS011;6560;57.692;11.958;2023-04-25T05:57:06;9.83;;;5.67;;
12990;SDS011;6560;57.692;11.958;2023-04-25T05:59:41;7.43;;;4.63;;
12990;SDS011;6560;57.692;11.958;2023-04-25T06:02:07;5.90;;;4.87;;
12990;SDS011;6560;57.692;11.958;2023-04-25T06:04:32;6.53;;;4.70;;
12990;SDS011;6560;57.692;11.958;2023-04-25T06:06:58;16.97;;;6.40;;
12990;SDS011;6560;57.692;11.958;2023-04-25T06:09:23;11.20;;;5.03;;
12990;SDS011;6560;57.692;11.958;2023-04-25T06:11:49;10.23;;;5.70;;
12990;SDS011;6560;57.692;11.958;2023-04-25T06:14:14;14.83;;;5.67;;
12990;SDS011;6560;57.692;11.958;2023-04-25T06:16:40;10.27;;;6.63;;
12990;SDS011;6560;57.692;11.958;2023-04-25T06:19:06;10.40;;;6.90;;
12990;SDS011;6560;57.692;11.958;2023-04-25T06:21:32;9.80;;;6.20;;
12990;SDS011;6560;57.692;11.958;2023-04-25T06:23:58;14.50;;;6.10;;
12990;SDS011;6560;57.692;11.958;2023-04-25T06:26:24;8.33;;;5.17;;
12990;SDS011;6560;57.692;11.958;2023-04-25T06:28:50;11.60;;;6.17;;
12990;SDS011;6560;57.692;11.958;2023-04-25T06:31:15;12.23;;;5.90;;
12990;SDS011;6560;57.692;11.958;2023-04-25T06:33:41;13.80;;;4.87;;
12990;SDS011;6560;57.692;11.958;2023-04-25T06:36:06;9.77;;;5.20;;
12990;SDS011;6560;57.692;11.958;2023-04-25T06:38:38;7.77;;;4.20;;
12990;SDS011;6560;57.692;11.958;2023-04-25T06:41:10;8.57;;;4.70;;
12990;SDS011;6560;57.692;11.958;2023-04-25T06:43:36;11.07;;;4.57;;
12990;SDS011;6560;57.692;11.958;2023-04-25T06:46:01;8.77;;;4.10;;
12990;SDS011;6560;57.692;11.958;2023-04-25T06:48:27;6.80;;;3.53;;
12990;SDS011;6560;57.692;11.958;2023-04-25T06:50:53;8.23;;;3.23;;
12990;SDS011;6560;57.692;11.958;2023-04-25T06:53:19;6.30;;;3.20;;
12990;SDS011;6560;57.692;11.958;2023-04-25T06:55:44;3.90;;;2.07;;
12990;SDS011;6560;57.692;11.958;2023-04-25T06:58:10;7.67;;;2.90;;
12990;SDS011;6560;57.692;11.958;2023-04-25T07:00:36;6.87;;;2.27;;
12990;SDS011;6560;57.692;11.958;2023-04-25T07:03:02;6.93;;;2.87;;
12990;SDS011;6560;57.692;11.958;2023-04-25T07:05:28;5.43;;;1.83;;
12990;SDS011;6560;57.692;11.958;2023-04-25T07:07:54;6.90;;;2.73;;
12990;SDS011;6560;57.692;11.958;2023-04-25T07:10:20;6.63;;;2.20;;
12990;SDS011;6560;57.692;11.958;2023-04-25T07:12:46;5.43;;;1.87;;
12990;SDS011;6560;57.692;11.958;2023-04-25T07:15:11;6.40;;;1.40;;
12990;SDS011;6560;57.692;11.958;2023-04-25T07:17:37;6.27;;;1.40;;
12990;SDS011;6560;57.692;11.958;2023-04-25T07:20:03;5.40;;;1.17;;
12990;SDS011;6560;57.692;11.958;2023-04-25T07:22:30;5.00;;;1.57;;
12990;SDS011;6560;57.692;11.958;2023-04-25T07:24:57;4.03;;;1.43;;
12990;SDS011;6560;57.692;11.958;2023-04-25T07:27:22;4.97;;;0.90;;
12990;SDS011;6560;57.692;11.958;2023-04-25T07:29:48;1.83;;;0.83;;
12990;SDS011;6560;57.692;11.958;2023-04-25T07:32:13;3.57;;;1.10;;
12990;SDS011;6560;57.692;11.958;2023-04-25T07:34:39;4.40;;;1.63;;
12990;SDS011;6560;57.692;11.958;2023-04-25T07:37:06;3.63;;;1.37;;
12990;SDS011;6560;57.692;11.958;2023-04-25T07:39:32;4.37;;;1.23;;
12990;SDS011;6560;57.692;11.958;2023-04-25T07:41:57;6.07;;;1.50;;
12990;SDS011;6560;57.692;11.958;2023-04-25T07:44:27;2.80;;;1.90;;
12990;SDS011;6560;57.692;11.958;2023-04-25T07:46:52;3.07;;;1.07;;
12990;SDS011;6560;57.692;11.958;2023-04-25T07:49:18;1.70;;;0.80;;
12990;SDS011;6560;57.692;11.958;2023-04-25T07:51:44;5.03;;;1.63;;
12990;SDS011;6560;57.692;11.958;2023-04-25T07:54:12;3.23;;;0.77;;
12990;SDS011;6560;57.692;11.958;2023-04-25T07:56:39;5.07;;;1.40;;
12990;SDS011;6560;57.692;11.958;2023-04-25T07:59:04;5.47;;;1.47;;
12990;SDS011;6560;57.692;11.958;2023-04-25T08:01:30;1.23;;;0.80;;
12990;SDS011;6560;57.692;11.958;2023-04-25T08:03:55;4.13;;;1.10;;
12990;SDS011;6560;57.692;11.958;2023-04-25T08:06:21;3.90;;;0.97;;
12990;SDS011;6560;57.692;11.958;2023-04-25T08:08:47;2.17;;;0.83;;
12990;SDS011;6560;57.692;11.958;2023-04-25T08:11:12;1.37;;;1.00;;
12990;SDS011;6560;57.692;11.958;2023-04-25T08:13:37;1.67;;;0.67;;
12990;SDS011;6560;57.692;11.958;2023-04-25T08:16:03;3.83;;;0.90;;
12990;SDS011;6560;57.692;11.958;2023-04-25T08:18:30;1.97;;;0.80;;
12990;SDS011;6560;57.692;11.958;2023-04-25T08:20:55;1.83;;;0.87;;
12990;SDS011;6560;57.692;11.958;2023-04-25T08:23:21;1.73;;;1.07;;
12990;SDS011;6560;57.692;11.958;2023-04-25T08:25:47;2.70;;;0.90;;
12990;SDS011;6560;57.692;11.958;2023-04-25T08:28:12;3.30;;;0.70;;
12990;SDS011;6560;57.692;11.958;2023-04-25T08:30:38;2.53;;;0.70;;
12990;SDS011;6560;57.692;11.958;2023-04-25T08:33:04;3.83;;;1.00;;
12990;SDS011;6560;57.692;11.958;2023-04-25T08:35:31;3.47;;;0.87;;
12990;SDS011;6560;57.692;11.958;2023-04-25T08:37:58;2.60;;;0.70;;
12990;SDS011;6560;57.692;11.958;2023-04-25T08:40:23;1.83;;;0.80;;
12990;SDS011;6560;57.692;11.958;2023-04-25T08:42:55;4.03;;;1.33;;
12990;SDS011;6560;57.692;11.958;2023-04-25T08:45:22;1.67;;;0.70;;
12990;SDS011;6560;57.692;11.958;2023-04-25T08:47:47;6.30;;;0.57;;
12990;SDS011;6560;57.692;11.958;2023-04-25T08:50:17;1.43;;;0.90;;
12990;SDS011;6560;57.692;11.958;2023-04-25T08:52:48;4.50;;;0.97;;
12990;SDS011;6560;57.692;11.958;2023-04-25T08:55:17;3.30;;;0.70;;
12990;SDS011;6560;57.692;11.958;2023-04-25T08:57:43;1.17;;;0.50;;
12990;SDS011;6560;57.692;11.958;2023-04-25T09:00:10;2.83;;;0.83;;
12990;SDS011;6560;57.692;11.958;2023-04-25T09:02:39;1.80;;;1.00;;
12990;SDS011;6560;57.692;11.958;2023-04-25T09:05:05;3.33;;;0.90;;
12990;SDS011;6560;57.692;11.958;2023-04-25T09:07:32;1.03;;;0.77;;
12990;SDS011;6560;57.692;11.958;2023-04-25T09:09:58;2.67;;;0.77;;
12990;SDS011;6560;57.692;11.958;2023-04-25T09:12:28;1.57;;;0.50;;
12990;SDS011;6560;57.692;11.958;2023-04-25T09:15:01;1.67;;;0.73;;
12990;SDS011;6560;57.692;11.958;2023-04-25T09:17:30;0.93;;;0.73;;
12990;SDS011;6560;57.692;11.958;2023-04-25T09:20:04;3.87;;;1.03;;
12990;SDS011;6560;57.692;11.958;2023-04-25T09:22:37;2.80;;;1.43;;
12990;SDS011;6560;57.692;11.958;2023-04-25T09:25:13;1.93;;;0.70;;
12990;SDS011;6560;57.692;11.958;2023-04-25T09:27:51;1.97;;;0.90;;
12990;SDS011;6560;57.692;11.958;2023-04-25T09:30:18;0.97;;;0.40;;
12990;SDS011;6560;57.692;11.958;2023-04-25T09:32:54;2.63;;;0.80;;
12990;SDS011;6560;57.692;11.958;2023-04-25T09:35:25;2.60;;;1.00;;
12990;SDS011;6560;57.692;11.958;2023-04-25T09:37:51;0.60;;;0.60;;
12990;SDS011;6560;57.692;11.958;2023-04-25T09:40:17;4.73;;;0.87;;
12990;SDS011;6560;57.692;11.958;2023-04-25T09:42:43;3.50;;;1.00;;
12990;SDS011;6560;57.692;11.958;2023-04-25T09:45:09;1.30;;;0.63;;
12990;SDS011;6560;57.692;11.958;2023-04-25T09:47:38;0.63;;;0.50;;
12990;SDS011;6560;57.692;11.958;2023-04-25T09:50:04;3.83;;;0.50;;
12990;SDS011;6560;57.692;11.958;2023-04-25T09:52:40;8.53;;;0.87;;
12990;SDS011;6560;57.692;11.958;2023-04-25T09:55:05;2.07;;;0.73;;
12990;SDS011;6560;57.692;11.958;2023-04-25T09:57:31;0.80;;;0.50;;
12990;SDS011;6560;57.692;11.958;2023-04-25T09:59:57;1.47;;;0.63;;
12990;SDS011;6560;57.692;11.958;2023-04-25T10:02:26;1.00;;;0.60;;
12990;SDS011;6560;57.692;11.958;2023-04-25T10:04:53;0.77;;;0.50;;
12990;SDS011;6560;57.692;11.958;2023-04-25T10:07:20;1.37;;;0.43;;
12990;SDS011;6560;57.692;11.958;2023-04-25T10:09:51;3.67;;;1.03;;
12990;SDS011;6560;57.692;11.958;2023-04-25T10:12:24;3.17;;;0.80;;
12990;SDS011;6560;57.692;11.958;2023-04-25T10:14:52;1.73;;;0.93;;
12990;SDS011;6560;57.692;11.958;2023-04-25T10:17:20;3.87;;;0.80;;
12990;SDS011;6560;57.692;11.958;2023-04-25T10:19:46;1.90;;;0.50;;
12990;SDS011;6560;57.692;11.958;2023-04-25T10:25:00;1.90;;;0.40;;
12990;SDS011;6560;57.692;11.958;2023-04-25T10:27:31;1.87;;;0.40;;
12990;SDS011;6560;57.692;11.958;2023-04-25T10:30:04;1.10;;;0.47;;
12990;SDS011;6560;57.692;11.958;2023-04-25T10:32:35;1.40;;;0.77;;
12990;SDS011;6560;57.692;11.958;2023-04-25T10:35:10;0.73;;;0.50;;
12990;SDS011;6560;57.692;11.958;2023-04-25T10:40:35;0.93;;;0.60;;
12990;SDS011;6560;57.692;11.958;2023-04-25T10:48:47;3.47;;;0.87;;
12990;SDS011;6560;57.692;11.958;2023-04-25T10:51:27;1.30;;;0.60;;
12990;SDS011;6560;57.692;11.958;2023-04-25T10:54:00;3.00;;;0.60;;
12990;SDS011;6560;57.692;11.958;2023-04-25T10:56:28;3.40;;;1.03;;
12990;SDS011;6560;57.692;11.958;2023-04-25T10:59:13;1.23;;;0.70;;
12990;SDS011;6560;57.692;11.958;2023-04-25T11:04:16;1.40;;;0.80;;
12990;SDS011;6560;57.692;11.958;2023-04-25T11:09:27;1.77;;;0.80;;
12990;SDS011;6560;57.692;11.958;2023-04-25T11:11:54;1.17;;;0.60;;
12990;SDS011;6560;57.692;11.958;2023-04-25T11:14:20;1.83;;;0.70;;
12990;SDS011;6560;57.692;11.958;2023-04-25T11:16:46;2.50;;;0.90;;
12990;SDS011;6560;57.692;11.958;2023-04-25T11:19:12;2.60;;;0.63;;
12990;SDS011;6560;57.692;11.958;2023-04-25T11:21:38;0.60;;;0.50;;
12990;SDS011;6560;57.692;11.958;2023-04-25T11:24:09;1.37;;;0.70;;
12990;SDS011;6560;57.692;11.958;2023-04-25T11:26:35;1.70;;;0.97;;
12990;SDS011;6560;57.692;11.958;2023-04-25T11:29:02;3.47;;;0.83;;
12990;SDS011;6560;57.692;11.958;2023-04-25T11:31:28;1.43;;;0.80;;
12990;SDS011;6560;57.692;11.958;2023-04-25T11:33:58;4.17;;;0.73;;
12990;SDS011;6560;57.692;11.958;2023-04-25T11:36:24;1.73;;;1.03;;
12990;SDS011;6560;57.692;11.958;2023-04-25T11:38:51;1.63;;;1.10;;
12990;SDS011;6560;57.692;11.958;2023-04-25T11:41:17;1.13;;;0.70;;
12990;SDS011;6560;57.692;11.958;2023-04-25T11:43:44;2.30;;;1.03;;
12990;SDS011;6560;57.692;11.958;2023-04-25T11:46:09;1.90;;;0.77;;
12990;SDS011;6560;57.692;11.958;2023-04-25T11:48:37;1.07;;;0.80;;
12990;SDS011;6560;57.692;11.958;2023-04-25T11:51:07;2.13;;;1.40;;
12990;SDS011;6560;57.692;11.958;2023-04-25T11:53:34;2.83;;;0.90;;
12990;SDS011;6560;57.692;11.958;2023-04-25T11:56:01;1.63;;;0.70;;
12990;SDS011;6560;57.692;11.958;2023-04-25T11:58:28;1.40;;;0.97;;
12990;SDS011;6560;57.692;11.958;2023-04-25T12:00:54;1.73;;;1.00;;
12990;SDS011;6560;57.692;11.958;2023-04-25T12:03:23;1.50;;;0.80;;
12990;SDS011;6560;57.692;11.958;2023-04-25T12:05:51;4.53;;;1.13;;
12990;SDS011;6560;57.692;11.958;2023-04-25T12:08:16;5.43;;;1.97;;
12990;SDS011;6560;57.692;11.958;2023-04-25T12:10:44;2.73;;;0.87;;
12990;SDS011;6560;57.692;11.958;2023-04-25T12:13:21;1.30;;;0.77;;
12990;SDS011;6560;57.692;11.958;2023-04-25T12:15:53;4.03;;;0.80;;
12990;SDS011;6560;57.692;11.958;2023-04-25T12:21:20;1.07;;;0.87;;
12990;SDS011;6560;57.692;11.958;2023-04-25T12:23:46;2.20;;;1.13;;
12990;SDS011;6560;57.692;11.958;2023-04-25T12:26:11;0.60;;;0.60;;
12990;SDS011;6560;57.692;11.958;2023-04-25T12:28:38;2.93;;;0.80;;
12990;SDS011;6560;57.692;11.958;2023-04-25T12:31:04;1.63;;;0.83;;
12990;SDS011;6560;57.692;11.958;2023-04-25T12:33:35;1.70;;;1.00;;
12990;SDS011;6560;57.692;11.958;2023-04-25T12:36:03;2.47;;;0.90;;
12990;SDS011;6560;57.692;11.958;2023-04-25T12:38:40;1.57;;;1.00;;
12990;SDS011;6560;57.692;11.958;2023-04-25T12:41:07;2.10;;;1.00;;
12990;SDS011;6560;57.692;11.958;2023-04-25T12:43:33;2.23;;;1.00;;
12990;SDS011;6560;57.692;11.958;2023-04-25T12:45:59;2.17;;;1.17;;
12990;SDS011;6560;57.692;11.958;2023-04-25T12:48:25;0.63;;;0.60;;
12990;SDS011;6560;57.692;11.958;2023-04-25T12:50:51;2.23;;;0.83;;
12990;SDS011;6560;57.692;11.958;2023-04-25T12:53:17;4.87;;;1.20;;
12990;SDS011;6560;57.692;11.958;2023-04-25T12:55:44;2.43;;;1.10;;
12990;SDS011;6560;57.692;11.958;2023-04-25T12:58:16;2.40;;;1.47;;
12990;SDS011;6560;57.692;11.958;2023-04-25T13:00:43;3.37;;;0.87;;
12990;SDS011;6560;57.692;11.958;2023-04-25T13:03:09;7.27;;;3.70;;
12990;SDS011;6560;57.692;11.958;2023-04-25T13:05:36;3.10;;;2.13;;
12990;SDS011;6560;57.692;11.958;2023-04-25T13:08:02;0.90;;;0.90;;
12990;SDS011;6560;57.692;11.958;2023-04-25T13:10:28;2.53;;;1.20;;
12990;SDS011;6560;57.692;11.958;2023-04-25T13:12:53;2.93;;;0.90;;
12990;SDS011;6560;57.692;11.958;2023-04-25T13:15:19;1.30;;;0.90;;
12990;SDS011;6560;57.692;11.958;2023-04-25T13:17:45;1.00;;;0.90;;
12990;SDS011;6560;57.692;11.958;2023-04-25T13:20:11;2.07;;;0.70;;
12990;SDS011;6560;57.692;11.958;2023-04-25T13:22:38;1.43;;;1.30;;
12990;SDS011;6560;57.692;11.958;2023-04-25T13:25:05;1.37;;;0.70;;
12990;SDS011;6560;57.692;11.958;2023-04-25T13:27:32;3.07;;;1.00;;
12990;SDS011;6560;57.692;11.958;2023-04-25T13:30:05;1.00;;;0.90;;
12990;SDS011;6560;57.692;11.958;2023-04-25T13:32:34;2.57;;;1.13;;
12990;SDS011;6560;57.692;11.958;2023-04-25T13:35:04;1.40;;;0.73;;
12990;SDS011;6560;57.692;11.958;2023-04-25T13:37:31;1.60;;;1.10;;
12990;SDS011;6560;57.692;11.958;2023-04-25T13:40:01;1.67;;;0.87;;
12990;SDS011;6560;57.692;11.958;2023-04-25T13:42:31;2.97;;;1.67;;
12990;SDS011;6560;57.692;11.958;2023-04-25T13:44:57;1.50;;;0.67;;
12990;SDS011;6560;57.692;11.958;2023-04-25T13:47:23;0.93;;;0.83;;
12990;SDS011;6560;57.692;11.958;2023-04-25T13:49:49;0.73;;;0.73;;
12990;SDS011;6560;57.692;11.958;2023-04-25T13:52:15;1.13;;;0.73;;
12990;SDS011;6560;57.692;11.958;2023-04-25T13:54:41;3.07;;;0.87;;
12990;SDS011;6560;57.692;11.958;2023-04-25T13:57:06;2.27;;;0.70;;
12990;SDS011;6560;57.692;11.958;2023-04-25T13:59:32;1.60;;;1.00;;
12990;SDS011;6560;57.692;11.958;2023-04-25T14:01:58;1.77;;;0.97;;
12990;SDS011;6560;57.692;11.958;2023-04-25T14:04:23;0.77;;;0.77;;
12990;SDS011;6560;57.692;11.958;2023-04-25T14:06:50;0.80;;;0.70;;
12990;SDS011;6560;57.692;11.958;2023-04-25T14:09:16;2.03;;;0.80;;
12990;SDS011;6560;57.692;11.958;2023-04-25T14:11:42;1.20;;;0.70;;
12990;SDS011;6560;57.692;11.958;2023-04-25T14:14:07;2.30;;;1.17;;
12990;SDS011;6560;57.692;11.958;2023-04-25T14:16:33;4.60;;;2.03;;
12990;SDS011;6560;57.692;11.958;2023-04-25T14:18:59;2.40;;;1.03;;
12990;SDS011;6560;57.692;11.958;2023-04-25T14:21:25;1.03;;;0.90;;
12990;SDS011;6560;57.692;11.958;2023-04-25T14:23:52;1.13;;;0.63;;
12990;SDS011;6560;57.692;11.958;2023-04-25T14:26:17;0.60;;;0.60;;
12990;SDS011;6560;57.692;11.958;2023-04-25T14:28:43;0.83;;;0.53;;
12990;SDS011;6560;57.692;11.958;2023-04-25T14:31:10;4.77;;;0.90;;
12990;SDS011;6560;57.692;11.958;2023-04-25T14:33:36;2.13;;;0.50;;
12990;SDS011;6560;57.692;11.958;2023-04-25T14:36:06;2.90;;;1.30;;
12990;SDS011;6560;57.692;11.958;2023-04-25T14:38:38;1.37;;;0.93;;
12990;SDS011;6560;57.692;11.958;2023-04-25T14:41:04;1.00;;;0.93;;
12990;SDS011;6560;57.692;11.958;2023-04-25T14:43:29;1.60;;;0.80;;
12990;SDS011;6560;57.692;11.958;2023-04-25T14:45:58;2.40;;;0.70;;
12990;SDS011;6560;57.692;11.958;2023-04-25T14:48:24;3.47;;;0.90;;
12990;SDS011;6560;57.692;11.958;2023-04-25T14:50:49;3.60;;;1.00;;
12990;SDS011;6560;57.692;11.958;2023-04-25T14:53:15;0.80;;;0.50;;
12990;SDS011;6560;57.692;11.958;2023-04-25T14:55:40;2.20;;;0.80;;
12990;SDS011;6560;57.692;11.958;2023-04-25T14:58:06;1.20;;;0.73;;
12990;SDS011;6560;57.692;11.958;2023-04-25T15:00:32;1.57;;;0.87;;
12990;SDS011;6560;57.692;11.958;2023-04-25T15:02:58;2.07;;;0.70;;
12990;SDS011;6560;57.692;11.958;2023-04-25T15:05:24;1.63;;;0.50;;
12990;SDS011;6560;57.692;11.958;2023-04-25T15:07:49;3.27;;;0.80;;
12990;SDS011;6560;57.692;11.958;2023-04-25T15:10:16;5.27;;;0.50;;
12990;SDS011;6560;57.692;11.958;2023-04-25T15:12:42;3.43;;;1.40;;
12990;SDS011;6560;57.692;11.958;2023-04-25T15:15:09;2.50;;;0.73;;
12990;SDS011;6560;57.692;11.958;2023-04-25T15:17:38;1.17;;;0.80;;
12990;SDS011;6560;57.692;11.958;2023-04-25T15:20:06;0.93;;;0.87;;
12990;SDS011;6560;57.692;11.958;2023-04-25T15:22:32;3.77;;;0.97;;
12990;SDS011;6560;57.692;11.958;2023-04-25T15:24:58;1.50;;;0.57;;